createdAt,value
2018-10-11T00:00:14.468Z,6.3
2018-10-11T00:01:04.510Z,6.3
2018-10-11T00:01:54.865Z,6.3
2018-10-11T00:02:44.925Z,6.3
2018-10-11T00:03:34.985Z,6.3
2018-10-11T00:04:25.052Z,6.3
2018-10-11T00:05:15.103Z,6.2
2018-10-11T00:06:04.888Z,6.2
2018-10-11T00:06:55.209Z,6.2
2018-10-11T00:25:16.357Z,5.9
2018-10-11T00:26:05.643Z,5.9
2018-10-11T00:26:55.930Z,5.9
2018-10-11T00:27:46.088Z,5.9
2018-10-11T00:28:50.467Z,5.9
2018-10-11T00:29:25.859Z,5.9
2018-10-11T00:30:16.221Z,5.9
2018-10-11T00:31:06.267Z,5.9
2018-10-11T00:31:56.036Z,5.9
2018-10-11T00:32:46.119Z,5.9
2018-10-11T00:33:36.451Z,5.8
2018-10-11T00:34:26.527Z,5.8
2018-10-11T00:35:16.289Z,5.8
2018-10-11T00:36:06.369Z,5.8
2018-10-11T00:36:56.406Z,5.8
2018-10-11T00:37:46.749Z,5.8
2018-10-11T00:38:36.822Z,5.8
2018-10-11T00:39:26.878Z,5.8
2018-10-11T00:40:16.963Z,5.8
2018-10-11T00:41:07.015Z,5.8
2018-10-11T00:41:57.074Z,5.8
2018-10-11T00:42:46.836Z,5.8
2018-10-11T00:43:37.181Z,5.7
2018-10-11T00:44:26.966Z,5.7
2018-10-11T00:45:17.035Z,5.7
2018-10-11T00:46:07.365Z,5.7
2018-10-11T00:46:57.425Z,5.6
2018-10-11T00:47:47.232Z,5.6
2018-10-11T00:48:37.551Z,5.6
2018-10-11T00:49:27.883Z,5.6
2018-10-11T00:50:17.409Z,5.6
2018-10-11T00:51:07.473Z,5.6
2018-10-11T00:51:57.825Z,5.6
2018-10-11T00:52:47.309Z,5.6
2018-10-11T00:53:37.930Z,5.6
2018-10-11T00:54:27.990Z,5.6
2018-10-11T00:55:17.767Z,5.6
2018-10-11T00:56:08.130Z,5.6
2018-10-11T00:56:57.889Z,5.5
2018-10-11T00:57:47.965Z,5.5
2018-10-11T00:58:38.023Z,5.5
2018-10-11T00:59:28.084Z,5.5
2018-10-11T01:00:18.423Z,5.4
2018-10-11T01:01:08.194Z,5.4
2018-10-11T01:01:58.256Z,5.4
2018-10-11T01:02:48.617Z,5.4
2018-10-11T01:03:38.385Z,5.4
2018-10-11T01:04:28.733Z,5.4
2018-10-11T01:05:18.788Z,5.4
2018-10-11T01:06:08.867Z,5.4
2018-10-11T01:06:58.908Z,5.4
2018-10-11T01:07:48.691Z,5.4
2018-10-11T01:08:38.797Z,5.4
2018-10-11T01:09:29.623Z,5.4
2018-10-11T01:10:19.167Z,5.3
2018-10-11T01:11:38.531Z,5.3
2018-10-11T01:12:13.651Z,5.3
2018-10-11T01:12:49.331Z,5.3
2018-10-11T01:13:39.424Z,5.3
2018-10-11T01:14:29.176Z,5.3
2018-10-11T01:15:19.525Z,5.3
2018-10-11T01:16:09.622Z,5.3
2018-10-11T01:16:59.083Z,5.3
2018-10-11T01:17:49.731Z,5.2
2018-10-11T01:18:39.484Z,5.2
2018-10-11T01:19:29.831Z,5.2
2018-10-11T01:20:19.611Z,5.2
2018-10-11T01:21:09.949Z,5.2
2018-10-11T01:22:00.298Z,5.1
2018-10-11T01:22:50.079Z,5.1
2018-10-11T01:23:40.072Z,5.1
2018-10-11T01:24:30.224Z,5.1
2018-10-11T01:25:20.279Z,5.1
2018-10-11T01:26:10.331Z,5.1
2018-10-11T01:27:00.384Z,5.1
2018-10-11T01:27:49.901Z,5.1
2018-10-11T01:28:40.225Z,5.1
2018-10-11T01:29:30.740Z,5.1
2018-10-11T01:30:20.368Z,5.1
2018-10-11T01:31:10.710Z,5.1
2018-10-11T01:32:00.511Z,5.1
2018-10-11T01:32:50.856Z,5
2018-10-11T01:33:40.880Z,5
2018-10-11T01:34:30.678Z,5
2018-10-11T01:35:21.023Z,5
2018-10-11T01:36:10.804Z,5
2018-10-11T01:37:01.178Z,4.9
2018-10-11T01:37:51.190Z,4.9
2018-10-11T01:38:41.436Z,5
2018-10-11T01:39:31.318Z,4.9
2018-10-11T01:40:21.377Z,4.9
2018-10-11T01:41:11.160Z,4.9
2018-10-11T01:42:01.500Z,4.9
2018-10-11T01:42:51.280Z,4.9
2018-10-11T01:43:41.343Z,4.9
2018-10-11T01:44:31.683Z,4.8
2018-10-11T01:45:22.013Z,4.8
2018-10-11T01:46:11.823Z,4.8
2018-10-11T01:47:01.874Z,4.8
2018-10-11T01:47:51.643Z,4.8
2018-10-11T01:48:42.004Z,4.8
2018-10-11T01:49:32.050Z,4.8
2018-10-11T01:50:22.115Z,4.8
2018-10-11T01:51:12.168Z,4.8
2018-10-11T01:52:01.968Z,4.8
2018-10-11T01:52:52.567Z,4.8
2018-10-11T01:53:42.377Z,4.8
2018-10-11T01:54:32.163Z,4.7
2018-10-11T01:55:22.198Z,4.7
2018-10-11T01:56:11.994Z,4.7
2018-10-11T01:57:02.624Z,4.7
2018-10-11T01:57:52.673Z,4.6
2018-10-11T01:58:42.734Z,4.7
2018-10-11T01:59:32.813Z,4.6
2018-10-11T02:00:22.910Z,4.6
2018-10-11T02:01:12.912Z,4.6
2018-10-11T02:02:03.008Z,4.6
2018-10-11T02:02:53.054Z,4.6
2018-10-11T02:03:43.111Z,4.6
2018-10-11T02:04:32.874Z,4.6
2018-10-11T02:05:23.239Z,4.6
2018-10-11T02:06:13.280Z,4.6
2018-10-11T02:07:03.363Z,4.6
2018-10-11T02:07:53.133Z,4.6
2018-10-11T02:08:43.468Z,4.5
2018-10-11T02:09:33.962Z,4.5
2018-10-11T02:10:23.613Z,4.5
2018-10-11T02:11:13.663Z,4.5
2018-10-11T02:12:03.753Z,4.5
2018-10-11T02:12:53.830Z,4.5
2018-10-11T02:13:43.834Z,4.4
2018-10-11T02:14:33.913Z,4.4
2018-10-11T02:15:23.397Z,4.4
2018-10-11T02:16:13.748Z,4.4
2018-10-11T02:17:03.800Z,4.4
2018-10-11T02:17:53.875Z,4.4
2018-10-11T02:18:44.227Z,4.4
2018-10-11T02:19:34.265Z,4.4
2018-10-11T02:20:24.047Z,4.4
2018-10-11T02:21:14.410Z,4.4
2018-10-11T02:22:04.452Z,4.3
2018-10-11T02:22:54.235Z,4.3
2018-10-11T02:23:44.630Z,4.3
2018-10-11T02:24:34.357Z,4.3
2018-10-11T02:25:24.699Z,4.3
2018-10-11T02:26:14.490Z,4.3
2018-10-11T02:27:04.842Z,4.3
2018-10-11T02:27:54.608Z,4.3
2018-10-11T02:28:44.939Z,4.3
2018-10-11T02:29:34.990Z,4.3
2018-10-11T02:30:25.100Z,4.3
2018-10-11T02:31:14.849Z,4.2
2018-10-11T02:32:05.841Z,4.2
2018-10-11T02:32:55.246Z,4.2
2018-10-11T02:33:45.333Z,4.2
2018-10-11T02:34:35.093Z,4.1
2018-10-11T02:35:25.152Z,4.1
2018-10-11T02:36:15.222Z,4.1
2018-10-11T02:37:05.290Z,4.1
2018-10-11T02:37:55.624Z,4.1
2018-10-11T02:38:45.720Z,4.1
2018-10-11T02:39:36.011Z,4.1
2018-10-11T02:40:25.526Z,4.1
2018-10-11T02:41:15.581Z,4.1
2018-10-11T02:42:05.359Z,4.1
2018-10-11T02:42:55.424Z,4.1
2018-10-11T02:43:45.769Z,4
2018-10-11T02:44:35.841Z,4
2018-10-11T02:45:26.182Z,4
2018-10-11T02:46:15.671Z,4
2018-10-11T02:47:06.301Z,3.9
2018-10-11T02:47:55.798Z,3.9
2018-10-11T02:48:46.424Z,3.9
2018-10-11T02:49:36.481Z,3.9
2018-10-11T02:50:26.279Z,3.9
2018-10-11T02:51:16.058Z,3.9
2018-10-11T02:52:06.665Z,3.9
2018-10-11T02:52:56.749Z,3.9
2018-10-11T02:53:46.796Z,3.9
2018-10-11T02:54:36.848Z,3.9
2018-10-11T02:55:26.958Z,3.9
2018-10-11T02:56:16.696Z,3.9
2018-10-11T02:57:06.753Z,3.9
2018-10-11T02:57:57.113Z,3.9
2018-10-11T02:58:47.172Z,3.8
2018-10-11T02:59:37.231Z,3.8
2018-10-11T03:00:27.615Z,3.8
2018-10-11T03:01:17.397Z,3.8
2018-10-11T03:02:07.418Z,3.8
2018-10-11T03:02:57.183Z,3.8
2018-10-11T03:03:47.558Z,3.8
2018-10-11T03:04:37.028Z,3.8
2018-10-11T03:05:27.407Z,3.8
2018-10-11T03:06:17.727Z,3.8
2018-10-11T03:07:07.502Z,3.8
2018-10-11T03:07:57.548Z,3.8
2018-10-11T03:08:47.625Z,3.8
2018-10-11T03:09:37.395Z,3.8
2018-10-11T03:10:28.041Z,3.8
2018-10-11T03:11:17.816Z,3.8
2018-10-11T03:12:08.150Z,3.8
2018-10-11T03:12:57.947Z,3.8
2018-10-11T03:13:47.985Z,3.8
2018-10-11T03:14:38.325Z,3.8
2018-10-11T03:15:28.362Z,3.8
2018-10-11T03:16:18.457Z,3.8
2018-10-11T03:17:08.515Z,3.8
2018-10-11T03:17:58.290Z,3.8
2018-10-11T03:18:48.355Z,3.8
2018-10-11T03:19:38.420Z,3.7
2018-10-11T03:20:28.757Z,3.7
2018-10-11T03:21:18.543Z,3.7
2018-10-11T03:22:08.896Z,3.7
2018-10-11T03:22:58.939Z,3.7
2018-10-11T03:23:49.016Z,3.7
2018-10-11T03:24:39.075Z,3.7
2018-10-11T03:25:29.702Z,3.7
2018-10-11T03:26:18.916Z,3.6
2018-10-11T03:27:08.979Z,3.7
2018-10-11T03:27:59.321Z,3.7
2018-10-11T03:28:49.372Z,3.6
2018-10-11T03:29:39.167Z,3.6
2018-10-11T03:30:29.504Z,3.6
2018-10-11T03:31:19.574Z,3.6
2018-10-11T03:32:09.644Z,3.6
2018-10-11T03:32:59.404Z,3.6
2018-10-11T03:33:49.761Z,3.6
2018-10-11T03:34:39.805Z,3.6
2018-10-11T03:35:30.211Z,3.6
2018-10-11T03:36:19.962Z,3.6
2018-10-11T03:37:10.001Z,3.6
2018-10-11T03:38:00.054Z,3.6
2018-10-11T03:38:50.116Z,3.6
2018-10-11T03:39:40.201Z,3.6
2018-10-11T03:40:30.259Z,3.6
2018-10-11T03:41:20.031Z,3.6
2018-10-11T03:42:10.081Z,3.6
2018-10-11T03:43:00.156Z,3.6
2018-10-11T03:43:50.211Z,3.5
2018-10-11T03:44:40.276Z,3.5
2018-10-11T03:45:30.608Z,3.5
2018-10-11T03:46:20.801Z,3.5
2018-10-11T03:47:10.733Z,3.5
2018-10-11T03:48:00.517Z,3.5
2018-10-11T03:48:50.860Z,3.5
2018-10-11T03:49:40.909Z,3.5
2018-10-11T03:50:30.990Z,3.5
2018-10-11T03:51:21.038Z,3.5
2018-10-11T03:52:10.538Z,3.5
2018-10-11T03:53:00.888Z,3.5
2018-10-11T03:53:51.237Z,3.5
2018-10-11T03:54:41.292Z,3.4
2018-10-11T03:55:31.060Z,3.4
2018-10-11T03:56:21.418Z,3.4
2018-10-11T03:57:11.477Z,3.4
2018-10-11T03:58:01.531Z,3.4
2018-10-11T03:58:51.591Z,3.4
2018-10-11T03:59:41.710Z,3.4
2018-10-11T04:00:31.715Z,3.4
2018-10-11T04:01:21.775Z,3.4
2018-10-11T04:02:11.847Z,3.4
2018-10-11T04:03:01.912Z,3.4
2018-10-11T04:03:51.672Z,3.4
2018-10-11T04:04:41.755Z,3.4
2018-10-11T04:05:32.077Z,3.4
2018-10-11T04:06:22.142Z,3.4
2018-10-11T04:07:12.220Z,3.4
2018-10-11T04:08:02.286Z,3.4
2018-10-11T04:08:52.325Z,3.4
2018-10-11T04:09:42.110Z,3.4
2018-10-11T04:10:32.452Z,3.4
2018-10-11T04:11:22.506Z,3.4
2018-10-11T04:12:12.569Z,3.4
2018-10-11T04:13:02.917Z,3.4
2018-10-11T04:13:52.693Z,3.4
2018-10-11T04:14:42.812Z,3.4
2018-10-11T04:15:33.048Z,3.4
2018-10-11T04:16:22.881Z,3.4
2018-10-11T04:17:12.940Z,3.4
2018-10-11T04:18:03.274Z,3.4
2018-10-11T04:18:52.779Z,3.4
2018-10-11T04:19:43.146Z,3.4
2018-10-11T04:20:33.204Z,3.4
2018-10-11T04:21:23.278Z,3.4
2018-10-11T04:22:13.316Z,3.4
2018-10-11T04:23:02.808Z,3.4
2018-10-11T04:23:53.425Z,3.4
2018-10-11T04:24:42.933Z,3.4
2018-10-11T04:25:33.554Z,3.4
2018-10-11T04:26:23.658Z,3.4
2018-10-11T04:27:13.700Z,3.4
2018-10-11T04:28:03.740Z,3.4
2018-10-11T04:28:53.820Z,3.4
2018-10-11T04:29:43.585Z,3.4
2018-10-11T04:30:33.919Z,3.4
2018-10-11T04:31:23.983Z,3.4
2018-10-11T04:32:14.045Z,3.4
2018-10-11T04:33:03.843Z,3.4
2018-10-11T04:33:54.157Z,3.4
2018-10-11T04:34:44.233Z,3.4
2018-10-11T04:35:34.299Z,3.4
2018-10-11T04:36:24.365Z,3.4
2018-10-11T04:54:15.768Z,3.3
2018-10-11T04:55:05.585Z,3.4
2018-10-11T04:55:55.628Z,3.4
2018-10-11T04:56:45.703Z,3.4
2018-10-11T04:57:35.743Z,3.4
2018-10-11T04:58:25.819Z,3.4
2018-10-11T04:59:16.118Z,3.4
2018-10-11T05:00:05.924Z,3.4
2018-10-11T05:00:55.986Z,3.4
2018-10-11T05:01:45.773Z,3.4
2018-10-11T05:02:36.123Z,3.4
2018-10-11T05:03:26.176Z,3.4
2018-10-11T05:04:16.787Z,3.4
2018-10-11T05:05:06.285Z,3.4
2018-10-11T05:05:56.085Z,3.4
2018-10-11T05:06:46.415Z,3.4
2018-10-11T05:07:36.465Z,3.4
2018-10-11T05:08:26.530Z,3.5
2018-10-11T05:09:16.300Z,3.5
2018-10-11T05:10:06.665Z,3.5
2018-10-11T05:10:56.723Z,3.5
2018-10-11T05:11:46.767Z,3.6
2018-10-11T05:12:36.829Z,3.6
2018-10-11T05:13:26.912Z,3.6
2018-10-11T05:14:16.667Z,3.6
2018-10-11T05:15:07.022Z,3.6
2018-10-11T05:15:57.084Z,3.6
2018-10-11T05:16:47.149Z,3.6
2018-10-11T05:17:36.926Z,3.6
2018-10-11T05:18:26.984Z,3.7
2018-10-11T05:19:17.349Z,3.8
2018-10-11T05:20:07.397Z,3.8
2018-10-11T05:20:57.176Z,3.8
2018-10-11T05:21:47.505Z,3.8
2018-10-11T05:22:37.579Z,3.8
2018-10-11T05:23:27.648Z,3.9
2018-10-11T05:24:17.689Z,3.9
2018-10-11T05:25:07.766Z,3.9
2018-10-11T05:25:57.982Z,4
2018-10-11T05:26:47.911Z,4.1
2018-10-11T05:27:37.964Z,4.1
2018-10-11T05:28:28.009Z,4.1
2018-10-11T05:29:18.059Z,4.2
2018-10-11T05:30:08.376Z,4.3
2018-10-11T05:30:58.178Z,4.3
2018-10-11T05:31:48.256Z,4.4
2018-10-11T05:32:38.304Z,4.4
2018-10-11T05:33:28.358Z,4.5
2018-10-11T05:34:18.144Z,4.6
2018-10-11T05:35:08.734Z,4.6
2018-10-11T05:35:58.556Z,4.8
2018-10-11T05:36:48.653Z,4.8
2018-10-11T05:37:38.673Z,4.9
2018-10-11T05:38:28.727Z,5
2018-10-11T05:39:18.788Z,5.1
2018-10-11T05:40:08.567Z,5.3
2018-10-11T05:40:58.915Z,5.3
2018-10-11T05:41:48.688Z,5.4
2018-10-11T05:42:39.031Z,5.6
2018-10-11T05:43:29.095Z,5.7
2018-10-11T05:44:19.364Z,5.8
2018-10-11T05:45:09.228Z,5.9
2018-10-11T05:45:59.575Z,6.1
2018-10-11T05:46:49.348Z,6.2
2018-10-11T05:47:39.403Z,6.3
2018-10-11T05:48:29.455Z,6.4
2018-10-11T05:49:19.526Z,6.6
2018-10-11T05:50:09.393Z,6.8
2018-10-11T05:50:59.650Z,6.9
2018-10-11T05:51:49.730Z,7.1
2018-10-11T05:52:39.770Z,7.2
2018-10-11T05:53:29.837Z,7.4
2018-10-11T05:54:19.892Z,7.6
2018-10-11T05:55:09.957Z,7.7
2018-10-11T05:56:00.015Z,7.9
2018-10-11T05:56:50.746Z,8
2018-10-11T05:57:40.150Z,8.2
2018-10-11T05:58:30.194Z,8.4
2018-10-11T05:59:19.692Z,8.6
2018-10-11T06:00:10.049Z,8.8
2018-10-11T06:01:00.386Z,8.9
2018-10-11T06:01:50.455Z,9.1
2018-10-11T06:02:40.515Z,9.3
2018-10-11T06:03:30.562Z,9.6
2018-10-11T06:04:21.233Z,9.8
2018-10-11T06:05:10.704Z,9.9
2018-10-11T06:06:00.470Z,10.2
2018-10-11T06:06:50.806Z,10.4
2018-10-11T06:07:40.872Z,10.6
2018-10-11T06:08:30.944Z,10.8
2018-10-11T06:09:20.707Z,11
2018-10-11T06:10:11.064Z,11.3
2018-10-11T06:11:00.838Z,11.5
2018-10-11T06:11:51.285Z,11.8
2018-10-11T06:12:41.274Z,12
2018-10-11T06:13:31.306Z,9.9
2018-10-11T06:14:21.405Z,11.4
2018-10-11T06:15:11.141Z,21.5
2018-10-11T06:16:01.501Z,28.8
2018-10-11T06:16:51.271Z,29.9
2018-10-11T06:17:41.763Z,31.9
2018-10-11T06:18:31.714Z,32.3
2018-10-11T06:19:21.743Z,32.3
2018-10-11T06:20:11.835Z,32.2
2018-10-11T06:21:01.851Z,31.9
2018-10-11T06:21:51.927Z,31.6
2018-10-11T06:22:41.981Z,31.4
2018-10-11T06:23:32.037Z,31.3
2018-10-11T06:24:22.089Z,31.2
2018-10-11T06:25:12.162Z,31.1
2018-10-11T06:26:02.235Z,30.9
2018-10-11T06:26:52.291Z,30.8
2018-10-11T06:27:42.342Z,30.8
2018-10-11T06:28:32.394Z,30.7
2018-10-11T06:29:22.480Z,30.6
2018-10-11T06:30:12.281Z,31.1
2018-10-11T06:31:02.587Z,31.7
2018-10-11T06:31:52.359Z,32
2018-10-11T06:32:42.702Z,32.5
2018-10-11T06:33:32.776Z,34.2
2018-10-11T06:34:22.831Z,36.3
2018-10-11T06:35:12.896Z,36.9
2018-10-11T06:36:03.417Z,36.6
2018-10-11T06:36:53.009Z,36.1
2018-10-11T06:37:43.071Z,35.9
2018-10-11T06:38:33.158Z,35.9
2018-10-11T06:39:23.220Z,36.2
2018-10-11T06:40:12.985Z,36.6
2018-10-11T06:41:03.326Z,36.9
2018-10-11T06:41:53.877Z,37.1
2018-10-11T06:42:44.032Z,37.3
2018-10-11T06:43:33.216Z,37.4
2018-10-11T06:44:23.565Z,37.5
2018-10-11T06:45:13.648Z,37.6
2018-10-11T06:46:03.694Z,37.8
2018-10-11T06:46:53.743Z,37.9
2018-10-11T06:47:43.805Z,38.2
2018-10-11T06:48:33.888Z,38.3
2018-10-11T06:49:23.648Z,38.5
2018-10-11T06:50:14.271Z,38.7
2018-10-11T06:51:04.061Z,38.8
2018-10-11T06:51:54.123Z,39
2018-10-11T06:52:44.171Z,39.1
2018-10-11T06:53:34.235Z,39.3
2018-10-11T06:54:24.010Z,39.5
2018-10-11T06:55:14.085Z,39.7
2018-10-11T06:56:04.811Z,39.8
2018-10-11T06:56:54.484Z,40
2018-10-11T06:57:44.543Z,40.1
2018-10-11T06:58:34.620Z,40.3
2018-10-11T06:59:24.659Z,40.4
2018-10-11T07:00:14.732Z,40.6
2018-10-11T07:01:04.506Z,40.8
2018-10-11T07:01:55.422Z,40.9
2018-10-11T07:02:44.620Z,41.1
2018-10-11T07:03:35.012Z,41.3
2018-10-11T07:04:25.033Z,41.4
2018-10-11T07:05:15.102Z,41.6
2018-10-11T07:06:05.160Z,41.7
2018-10-11T07:06:55.214Z,41.8
2018-10-11T07:07:44.998Z,42
2018-10-11T07:08:35.045Z,42.2
2018-10-11T07:09:25.412Z,42.3
2018-10-11T07:10:15.457Z,42.4
2018-10-11T07:11:05.520Z,42.6
2018-10-11T07:11:55.597Z,42.8
2018-10-11T07:12:45.647Z,42.9
2018-10-11T07:13:35.702Z,43.1
2018-10-11T07:14:25.779Z,43.2
2018-10-11T07:15:15.832Z,43.4
2018-10-11T07:16:05.881Z,43.5
2018-10-11T07:16:55.949Z,43.7
2018-10-11T07:17:46.010Z,43.8
2018-10-11T07:18:35.782Z,43.9
2018-10-11T07:19:26.683Z,44.1
2018-10-11T07:20:15.915Z,44.3
2018-10-11T07:21:06.247Z,44.4
2018-10-11T07:21:56.324Z,44.6
2018-10-11T07:22:46.084Z,44.8
2018-10-11T07:23:36.444Z,44.9
2018-10-11T07:24:26.519Z,45.1
2018-10-11T07:25:16.607Z,45.2
2018-10-11T07:26:06.711Z,45.3
2018-10-11T07:26:56.701Z,45.1
2018-10-11T07:27:46.756Z,45.2
2018-10-11T07:28:36.523Z,45.3
2018-10-11T07:29:26.873Z,45.4
2018-10-11T07:30:16.361Z,45.6
2018-10-11T07:31:06.986Z,45.4
2018-10-11T07:31:57.061Z,44.6
2018-10-11T07:32:46.829Z,43.7
2018-10-11T07:33:36.893Z,42.8
2018-10-11T07:34:27.360Z,42.1
2018-10-11T07:35:17.903Z,41.4
2018-10-11T07:36:07.370Z,40.7
2018-10-11T07:36:57.441Z,40.1
2018-10-11T07:37:47.201Z,39.4
2018-10-11T07:38:37.253Z,38.7
2018-10-11T07:39:27.321Z,37.9
2018-10-11T07:40:17.953Z,37.3
2018-10-11T07:41:08.240Z,36.6
2018-10-11T07:41:57.798Z,36
2018-10-11T07:42:47.855Z,35.8
2018-10-11T07:43:37.930Z,35.9
2018-10-11T07:44:27.991Z,36.1
2018-10-11T07:45:17.761Z,36.1
2018-10-11T07:46:08.120Z,36.2
2018-10-11T07:46:57.995Z,36.4
2018-10-11T07:47:48.186Z,36.5
2018-10-11T07:48:38.292Z,36.7
2018-10-11T07:49:28.350Z,36.9
2018-10-11T07:50:18.415Z,37.2
2018-10-11T07:51:08.465Z,37.4
2018-10-11T07:51:58.527Z,37.7
2018-10-11T07:52:48.852Z,37.9
2018-10-11T07:53:38.653Z,38.2
2018-10-11T07:54:28.715Z,38.4
2018-10-11T07:55:18.770Z,38.7
2018-10-11T07:56:08.839Z,38.9
2018-10-11T07:56:58.912Z,39.2
2018-10-11T07:57:48.970Z,39.1
2018-10-11T07:58:39.016Z,38.9
2018-10-11T07:59:29.091Z,39
2018-10-11T08:00:19.149Z,39.3
2018-10-11T08:01:09.062Z,39.6
2018-10-11T08:01:58.996Z,39.9
2018-10-11T08:02:49.053Z,40.2
2018-10-11T08:03:39.605Z,40.4
2018-10-11T08:04:29.452Z,40.6
2018-10-11T08:05:19.762Z,40.9
2018-10-11T08:06:09.607Z,41.1
2018-10-11T08:06:59.818Z,41.3
2018-10-11T08:07:49.692Z,41.6
2018-10-11T08:08:39.496Z,41.9
2018-10-11T08:09:29.838Z,42.1
2018-10-11T08:10:20.288Z,42.4
2018-10-11T08:11:10.826Z,42.6
2018-10-11T08:12:01.250Z,42.9
2018-10-11T08:12:50.072Z,43.1
2018-10-11T08:13:40.578Z,43.3
2018-10-11T08:14:30.219Z,43.6
2018-10-11T08:15:20.274Z,43.8
2018-10-11T08:16:11.074Z,43.9
2018-10-11T08:17:01.689Z,44.3
2018-10-11T08:17:51.869Z,44.5
2018-10-11T08:18:41.001Z,44.8
2018-10-11T08:19:31.960Z,44.9
2018-10-11T08:20:20.796Z,45.1
2018-10-11T08:21:10.136Z,45.4
2018-10-11T08:22:00.779Z,45.6
2018-10-11T08:22:50.534Z,45.8
2018-10-11T08:23:40.625Z,46
2018-10-11T08:24:31.362Z,46.2
2018-10-11T08:25:22.962Z,46.4
2018-10-11T08:26:13.030Z,46.6
2018-10-11T08:27:01.104Z,46.8
2018-10-11T08:27:50.702Z,47
2018-10-11T08:28:40.953Z,47.2
2018-10-11T08:29:31.117Z,47.4
2018-10-11T08:30:21.375Z,47.6
2018-10-11T08:31:11.425Z,47.8
2018-10-11T08:32:01.048Z,47.9
2018-10-11T08:32:51.679Z,48.2
2018-10-11T08:33:41.623Z,48.4
2018-10-11T08:34:31.206Z,48.5
2018-10-11T08:35:21.735Z,48.7
2018-10-11T08:36:11.797Z,48.9
2018-10-11T08:37:01.373Z,49.1
2018-10-11T08:37:52.341Z,49.3
2018-10-11T08:38:41.762Z,49.5
2018-10-11T08:39:31.812Z,49.6
2018-10-11T08:40:22.212Z,49.8
2018-10-11T08:41:11.687Z,50
2018-10-11T08:42:02.262Z,50.2
2018-10-11T08:42:51.802Z,50.4
2018-10-11T08:43:42.138Z,50.5
2018-10-11T08:44:31.935Z,50.6
2018-10-11T08:45:22.497Z,50.4
2018-10-11T08:46:12.088Z,50.1
2018-10-11T08:47:02.318Z,49.9
2018-10-11T08:47:52.379Z,49.7
2018-10-11T08:48:42.974Z,49.6
2018-10-11T08:49:32.799Z,49.7
2018-10-11T08:50:23.115Z,49.9
2018-10-11T08:51:12.910Z,50.1
2018-10-11T08:52:02.494Z,50
2018-10-11T09:08:50.201Z,48.8
2018-10-11T09:09:40.597Z,48.8
2018-10-11T09:10:39.745Z,48.8
2018-10-11T09:11:20.288Z,48.8
2018-10-11T09:12:10.425Z,48.8
2018-10-11T09:13:00.481Z,48.8
2018-10-11T09:13:51.014Z,48.8
2018-10-11T09:14:41.088Z,48.7
2018-10-11T09:15:30.382Z,48.6
2018-10-11T09:16:20.964Z,48.6
2018-10-11T09:17:11.217Z,48.6
2018-10-11T09:18:01.059Z,48.5
2018-10-11T09:18:50.826Z,48.6
2018-10-11T09:19:40.693Z,48.6
2018-10-11T09:20:30.755Z,48.6
2018-10-11T09:21:21.720Z,48.6
2018-10-11T09:22:11.150Z,48.8
2018-10-11T09:23:01.302Z,48.8
2018-10-11T09:23:51.291Z,48.8
2018-10-11T09:24:41.818Z,48.7
2018-10-11T09:25:31.117Z,48.6
2018-10-11T09:26:21.459Z,48.6
2018-10-11T09:27:12.020Z,48.6
2018-10-11T09:28:01.583Z,48.6
2018-10-11T09:28:51.645Z,48.6
2018-10-11T09:29:41.868Z,48.6
2018-10-11T09:30:32.139Z,48.6
2018-10-11T09:31:21.833Z,48.5
2018-10-11T09:32:11.612Z,48.4
2018-10-11T09:33:02.457Z,48.4
2018-10-11T09:33:51.737Z,48.4
2018-10-11T09:34:42.282Z,48.4
2018-10-11T09:35:32.342Z,48.4
2018-10-11T09:36:22.415Z,48.4
2018-10-11T09:37:12.276Z,48.7
2018-10-11T09:38:02.827Z,49.3
2018-10-11T09:38:52.389Z,49.9
2018-10-11T09:39:42.177Z,50.4
2018-10-11T09:40:32.512Z,50.6
2018-10-11T09:41:22.564Z,50.6
2018-10-11T09:42:12.658Z,50.7
2018-10-11T09:43:02.954Z,50.9
2018-10-11T09:43:52.756Z,51.3
2018-10-11T09:44:42.821Z,51.6
2018-10-11T09:46:22.948Z,52.2
2018-10-11T09:47:13.016Z,52.3
2018-10-11T09:48:02.792Z,52.2
2018-10-11T09:49:43.393Z,51.6
2018-10-11T09:50:33.733Z,51.5
2018-10-11T09:51:23.049Z,51.6
2018-10-11T09:52:13.578Z,51.8
2018-10-11T09:53:03.925Z,52
2018-10-11T09:53:53.501Z,52.1
2018-10-11T09:54:43.679Z,52.1
2018-10-11T09:55:33.631Z,52.2
2018-10-11T09:56:23.748Z,52.2
2018-10-11T09:57:13.483Z,52.1
2018-10-11T09:58:53.594Z,52.1
2018-10-11T09:59:43.657Z,52.1
2018-10-11T10:00:33.721Z,52.1
2018-10-11T10:01:24.053Z,52.1
2018-10-11T10:02:13.845Z,52.1
2018-10-11T10:03:03.626Z,52.1
2018-10-11T10:03:54.251Z,52.3
2018-10-11T10:04:44.311Z,52.6
2018-10-11T10:05:34.365Z,53.1
2018-10-11T10:06:24.441Z,53.6
2018-10-11T10:07:14.498Z,53.9
2018-10-11T10:08:04.272Z,54.1
2018-10-11T10:08:54.627Z,54.2
2018-10-11T10:09:44.865Z,54.3
2018-10-11T10:10:34.740Z,54.4
2018-10-11T10:11:25.630Z,54.4
2018-10-11T10:12:15.164Z,54.4
2018-10-11T10:13:04.649Z,54.5
2018-10-11T10:13:54.992Z,54.6
2018-10-11T10:14:45.313Z,54.6
2018-10-11T10:15:35.325Z,54.3
2018-10-11T10:16:25.173Z,54.1
2018-10-11T10:17:15.243Z,53.8
2018-10-11T10:18:05.549Z,53.6
2018-10-11T10:18:55.364Z,53.4
2018-10-11T10:19:45.677Z,53.3
2018-10-11T10:20:35.489Z,53.1
2018-10-11T10:21:26.107Z,53.1
2018-10-11T10:22:16.096Z,53.1
2018-10-11T10:23:05.677Z,53.4
2018-10-11T10:23:55.461Z,53.9
2018-10-11T10:24:46.286Z,54.4
2018-10-11T10:25:36.520Z,54.8
2018-10-11T10:26:26.564Z,55
2018-10-11T10:27:16.628Z,55.1
2018-10-11T10:28:06.043Z,55.3
2018-10-11T10:28:56.321Z,55.5
2018-10-11T10:29:46.658Z,55.7
2018-10-11T10:30:36.231Z,55.9
2018-10-11T10:31:26.294Z,56.1
2018-10-11T10:32:16.088Z,56.3
2018-10-11T10:33:06.423Z,56.4
2018-10-11T10:33:56.292Z,56.6
2018-10-11T10:34:47.048Z,56.7
2018-10-11T10:35:36.606Z,56.8
2018-10-11T10:36:26.665Z,56.9
2018-10-11T10:37:16.773Z,56.9
2018-10-11T10:38:06.788Z,56.9
2018-10-11T10:38:57.103Z,57
2018-10-11T10:39:47.030Z,57.2
2018-10-11T10:40:36.708Z,57.4
2018-10-11T10:41:27.040Z,57.6
2018-10-11T10:42:17.115Z,57.6
2018-10-11T10:43:57.223Z,57.8
2018-10-11T10:44:47.308Z,57.8
2018-10-11T10:45:37.347Z,57.9
2018-10-11T10:46:27.408Z,58.1
2018-10-11T10:47:17.475Z,58.2
2018-10-11T10:48:07.535Z,58.2
2018-10-11T10:48:57.948Z,58.3
2018-10-11T10:49:47.663Z,58.5
2018-10-11T10:50:37.736Z,58.7
2018-10-11T10:51:27.784Z,58.8
2018-10-11T10:52:17.578Z,58.9
2018-10-11T10:53:07.635Z,58.8
2018-10-11T10:54:48.035Z,58.2
2018-10-11T10:55:38.104Z,57.9
2018-10-11T10:56:28.382Z,57.8
2018-10-11T10:57:18.217Z,57.9
2018-10-11T10:58:08.294Z,58.2
2018-10-11T10:58:58.343Z,58.6
2018-10-11T10:59:48.405Z,58.9
2018-10-11T11:00:38.470Z,59.2
2018-10-11T11:01:28.529Z,59.4
2018-10-11T11:02:18.609Z,59.4
2018-10-11T11:03:08.918Z,59.5
2018-10-11T11:03:58.728Z,59.6
2018-10-11T11:04:49.257Z,59.7
2018-10-11T11:05:39.590Z,59.8
2018-10-11T11:06:28.621Z,59.9
2018-10-11T11:07:19.709Z,60.1
2018-10-11T11:08:09.026Z,60.1
2018-10-11T11:08:59.093Z,60.1
2018-10-11T11:09:49.151Z,60.1
2018-10-11T11:10:39.717Z,60.2
2018-10-11T11:11:29.279Z,60.3
2018-10-11T11:12:19.341Z,60.4
2018-10-11T11:13:09.652Z,60.6
2018-10-11T11:13:59.679Z,60.6
2018-10-11T11:14:49.249Z,60.6
2018-10-11T11:15:39.611Z,60.6
2018-10-11T11:16:29.644Z,60.6
2018-10-11T11:17:19.426Z,60.6
2018-10-11T11:18:09.787Z,60.8
2018-10-11T11:19:00.218Z,60.8
2018-10-11T11:19:49.895Z,60.9
2018-10-11T11:20:40.446Z,61.1
2018-10-11T11:21:30.025Z,61.1
2018-10-11T11:22:20.088Z,61.2
2018-10-11T11:23:10.148Z,61.2
2018-10-11T11:24:00.210Z,61.3
2018-10-11T11:24:50.271Z,61.3
2018-10-11T11:25:40.348Z,61.2
2018-10-11T11:26:30.406Z,60.9
2018-10-11T11:27:20.458Z,60.6
2018-10-11T11:28:10.251Z,60.3
2018-10-11T11:29:00.580Z,59.9
2018-10-11T11:29:50.663Z,59.8
2018-10-11T11:30:40.715Z,60
2018-10-11T11:31:30.772Z,60.3
2018-10-11T11:32:20.560Z,60.7
2018-10-11T11:33:10.612Z,60.9
2018-10-11T11:34:00.683Z,61
2018-10-11T11:34:51.022Z,61.1
2018-10-11T11:35:41.099Z,61.1
2018-10-11T11:36:30.857Z,61.2
2018-10-11T11:37:21.202Z,61.3
2018-10-11T11:38:11.282Z,61.4
2018-10-11T11:39:01.330Z,61.4
2018-10-11T11:39:51.166Z,61.6
2018-10-11T11:40:41.525Z,61.6
2018-10-11T11:41:31.537Z,61.6
2018-10-11T11:42:21.294Z,61.6
2018-10-11T11:43:11.368Z,61.7
2018-10-11T11:44:01.695Z,61.8
2018-10-11T11:44:51.762Z,61.8
2018-10-11T11:45:42.206Z,61.9
2018-10-11T11:46:31.615Z,61.9
2018-10-11T11:47:21.942Z,61.9
2018-10-11T11:48:11.739Z,61.9
2018-10-11T11:49:02.092Z,62
2018-10-11T11:49:51.862Z,62.1
2018-10-11T11:50:42.585Z,62.1
2018-10-11T11:51:31.988Z,62.1
2018-10-11T11:52:22.335Z,62.2
2018-10-11T11:53:12.779Z,62.2
2018-10-11T11:54:02.484Z,62.3
2018-10-11T11:54:52.507Z,62.3
2018-10-11T11:55:42.577Z,62.3
2018-10-11T11:56:32.631Z,62.3
2018-10-11T11:57:22.692Z,62.4
2018-10-11T11:58:12.764Z,62.4
2018-10-11T11:59:02.832Z,62.4
2018-10-11T11:59:52.607Z,62.5
2018-10-11T12:00:42.956Z,62.5
2018-10-11T12:01:33.009Z,62.6
2018-10-11T12:02:22.796Z,62.6
2018-10-11T12:03:13.131Z,62.6
2018-10-11T12:04:03.210Z,62.7
2018-10-11T12:04:52.977Z,62.7
2018-10-11T12:05:43.621Z,62.7
2018-10-11T12:06:33.392Z,62.7
2018-10-11T12:07:23.436Z,62.8
2018-10-11T12:08:13.506Z,62.8
2018-10-11T12:09:03.561Z,62.8
2018-10-11T12:09:53.631Z,62.9
2018-10-11T12:10:44.044Z,62.9
2018-10-11T12:11:33.474Z,62.9
2018-10-11T12:12:23.833Z,62.9
2018-10-11T12:13:14.623Z,63